vendredi 01 décembre 2017

Le classement original se trouve sur : http://ultratiming.be
 
LA COR'HUY'DA - HUY
DISTANCE : 3.99 km
vendredi 01 décembre 2017
 
Place dos NOM Catégorie Pl/cat temps temps/km Vitesse
1 1166 VAN HEE THOMAS SEH 1 00:14:20 03:36 16.70
2 1188 LEONET MATHIEU SEH 2 00:14:29 03:38 16.53
3 1212 BILLA-GARCIA SAMUEL ESPH 1 00:14:34 03:39 16.43
4 1143 BROZE CLÉMENT CAH 1 00:14:37 03:40 16.38
5 1132 VERBRUGGHE CHARLES JUH 1 00:14:40 03:41 16.32
6 1107 MANETTE OLIVIER V1H 1 00:15:11 03:48 15.77
7 1173 LESSAGE FRANÇOIS CAH 2 00:15:37 03:55 15.33
8 1161 CHABABE LARBI V1H 2 00:15:59 04:00 14.98
9 1103 LIÉGEOIS BASTIEN CAH 3 00:16:03 04:01 14.91
10 1024 GRAINDORGE VICTOR MIH 1 00:16:25 04:07 14.58
11 1131 VERBRUGGHE EMMA MIF 1 00:16:39 04:10 14.38
12 1167 WEBER MAXIM CAH 4 00:16:52 04:14 14.19
13 1080 FRANCKART AUGUSTE CAH 5 00:16:56 04:15 14.14
14 598 PIETTE JULIEN ESPH 2 00:16:57 04:15 14.12
15 1079 FRANCKART CORENTINE CAF 1 00:16:57 04:15 14.12
16 1169 LEGRAND FRANCINE V1F 1 00:17:03 04:16 14.04
17 1098 KEUTGEN NATHANAËL XXX   00:17:21 04:21 13.80
18 1184 LISSENS ROMAIN XXX   00:18:03 04:31 13.26
19 1153 HEINE GÉRALD XXX   00:18:10 04:33 13.18
20 1155 MESTREZ QUENTIN XXX   00:18:17 04:35 13.09
21 1138 PIRLET TITOUAN XXX   00:18:30 04:38 12.94
22 1062 DANEELS MAXIME JUH 2 00:18:34 04:39 12.89
23 1057 COLETTE TANGUY CAH 6 00:18:54 04:44 12.66
24 1171 LESSAGE ARNAUD MIH 2 00:19:51 04:59 12.06
25 1064 DELCOMMUNE SARAH MIF 2 00:19:54 04:59 12.03
26 1019 KINET-POLEUR MAXIME MIH 3 00:20:10 05:03 11.87
27 1135 LEBLANC MAXIME MIH 4 00:20:15 05:05 11.82
28 1004 GRAINDORGE MAXENCE MIH 5 00:20:17 05:05 11.80
29 1104 LOZIAK BAPTISTE MIH 6 00:20:18 05:05 11.79
30 1165 FIEVEZ LISIANNE SEF 1 00:20:19 05:06 11.78
31 1017 DEFAYS VALENTIN MIH 7 00:20:27 05:08 11.70
32 1196 FRISON MATIS XXX   00:20:44 05:12 11.55
33 1152 PIRON THOMAS XXX   00:20:45 05:12 11.54
34 1035 LOMBA PRIMAËLLE CAF 2 00:20:50 05:13 11.49
35 1218 GARIN GEORGES CAH 7 00:20:56 05:15 11.43
36 1176 FOURNEAU THIBAULT MIH 8 00:20:58 05:15 11.42
37 1028 WEEMAELS NOA XXX   00:21:01 05:16 11.39
38 1139 CHARLIER LOUIS JUH 3 00:21:13 05:19 11.28
39 1219 GARIN LÉOPOLD CAH 8 00:21:26 05:22 11.17
40 1122 PREUD´HOMME ARNAUD JUH 4 00:21:47 05:28 10.99
41 581 GIACCHGTTA JUAN XXX   00:21:52 05:29 10.95
42 1191 WILMOTTE LÉONTINE XXX   00:21:59 05:31 10.89
43 1207 CHAMPON ROMAIN XXX   00:22:00 05:31 10.88
44 1180 DEWEZ SYLVAIN XXX   00:22:00 05:31 10.88
45 1175 NIYUNGEKO KESA MIF 3 00:22:07 05:33 10.82
46 1160 LOUIS TOM MIH 9 00:22:08 05:33 10.81
47 1118 PETIT MANON MIF 4 00:22:13 05:34 10.77
48 1163 DASSY LUDOVIC SEH 3 00:22:13 05:34 10.77
49 1128 VAN ELSLANDER FRÉDÉRIC V2H 1 00:22:19 05:36 10.73
50 1117 OLIVIER SALOMÉ XXX   00:22:19 05:36 10.73
51 1142 GENGOUX MAXIME MIH 10 00:22:27 05:38 10.66
52 1154 BONTEMPS MANON XXX   00:22:29 05:38 10.65
53 1136 COOLS REMI CAH 9 00:22:35 05:40 10.60
54 1214 GUILMAIN SYLVAIN XXX   00:22:36 05:40 10.59
55 1201 HALLEUX THIBAUT V1H 3 00:22:45 05:42 10.52
56 1216 HALLEUX SOPHIE V1F 2 00:22:48 05:43 10.50
57 1026 GASPART ESTHER MIF 5 00:23:03 05:47 10.38
58 1093 HORECZKY LISA CAF 3 00:23:04 05:47 10.38
59 1016 DEUMER FLORENCE XXX   00:23:26 05:52 10.21
60 1130 VANHEES VICKY V1F 3 00:23:34 05:54 10.16
61 1198 HUBIN ESTHER CAF 4 00:23:38 05:55 10.13
62 1203 MARCHE CATHERINE V1F 4 00:23:44 05:57 10.09
63 1002 GOBBELS QUENTIN MIH 11 00:23:45 05:57 10.08
64 1225 ROBINET SANDRA SEF 2 00:23:46 05:57 10.07
65 1206 FADISTA FANNY MIF 6 00:23:46 05:57 10.07
66 1073 DIEDEREN JUSTIN XXX   00:23:47 05:58 10.06
67 1011 DUCARME LINDA CAF 5 00:23:53 05:59 10.02
68 1012 VANDENBERGHE VALENTIN MIH 12 00:23:53 05:59 10.02
69 1112 MATERNE THOMAS JUH 5 00:23:54 05:59 10.02
70 1227 ROUSSEL MANON MIF 7 00:24:03 06:02 9.95
71 1074 DIEDEREN JULIETTE MIF 8 00:24:03 06:02 9.95
72 1046 ANCIAUX GUILLAUME XXX   00:24:06 06:02 9.93
73 1137 COOLS MAXIME ESPH 3 00:24:13 06:04 9.88
74 599 MELEBECK PAULINE XXX   00:24:18 06:05 9.85
75 1025 SYNE LOUISE XXX   00:24:22 06:06 9.82
76 1051 DORMAL SIMON SEH 4 00:24:46 06:12 9.66
77 1094 JAMINET AGATHE XXX   00:24:47 06:13 9.66
78 1204 WANSON LAURENCE V1F 5 00:24:50 06:13 9.64
79 1054 LEBRUN MATISSE CAH 10 00:24:51 06:14 9.63
80 1091 HERMAN JOSHUA XXX   00:24:52 06:14 9.63
81 132 DAENEN ARNAUD SEH 5 00:25:03 06:17 9.56
82 1129 VANDENRYT RENÉ V2H 2 00:25:04 06:17 9.55
83 1096 JAMINET JEAN-FRANÇOIS V1H 4 00:25:17 06:20 9.47
84 1120 PIRARD CHARLOTTE XXX   00:25:18 06:21 9.46
85 1164 JOIRET VALENTINE XXX   00:25:28 06:23 9.40
86 1127 VAN ELSLANDER ALICIA CAF 6 00:25:35 06:25 9.36
87 1082 GABRIËL MARIE MIF 9 00:25:35 06:25 9.36
88 1023 LIGNON ZOE MIF 10 00:25:43 06:27 9.31
89 1114 MINGUET NICOLAS XXX   00:25:44 06:27 9.30
90 1022 DEMOULIN SYLVIA XXX   00:25:46 06:28 9.29
91 1015 GENOTTE CAROLINE V1F 6 00:25:55 06:30 9.24
92 1055 CAMUS OLIVIER SEH 6 00:25:57 06:30 9.22
93 1159 VANDEVELD STEVE JUH 6 00:26:11 06:34 9.14
94 1157 VANDEVELD MANON MIF 11 00:26:12 06:34 9.14
95 1097 JOIRET BERNADETTE V2F 1 00:26:24 06:37 9.07
96 1178 DEVILLET ALAIN V1H 5 00:26:24 06:37 9.07
97 1208 PUELINGS SVEN V1H 6 00:26:25 06:37 9.06
98 1084 GILLES MARIE MIF 12 00:26:26 06:38 9.06
99 464 MARCOS MARIA V3F 1 00:26:29 06:38 9.04
100 1050 BEYAERT JANE ESPF 1 00:26:30 06:39 9.03
101 1168 BAIKRICH KORALIE MIF 13 00:26:31 06:39 9.03
102 1213 LUCAS COLIN XXX   00:26:35 06:40 9.00
103 1182 AREND DOMINIQUE V2H 3 00:26:47 06:43 8.94
104 1189 ERMEST BERT V2H 4 00:26:47 06:43 8.94
105 1140 COLLIGNON MICHEL JUH 7 00:26:50 06:44 8.92
106 1194 COSME CHRISTINE SEF 3 00:26:51 06:44 8.91
107 1172 LESSAGE GWENDOLYN XXX   00:27:10 06:49 8.81
108 1226 WOTRON LUCIE MIF 14 00:27:19 06:51 8.76
109 1133 FRANKINET GAEL XXX   00:27:24 06:52 8.74
110 1056 CHOUFFART OLIVIER V1H 7 00:27:30 06:54 8.70
111 1113 MERENNE SARAH SEF 4 00:27:33 06:54 8.69
112 1083 GARIN PIERRE V2H 5 00:27:36 06:55 8.67
113 1162 LUTS MAELLE MIF 15 00:27:53 06:59 8.58
114 1077 FORTHOMME LÉA MIF 16 00:27:56 07:00 8.57
115 1078 FORTHOMME MATHILDE CAF 7 00:27:56 07:00 8.57
116 1038 GIL GARCIA MONSTERA V3F 2 00:28:01 07:01 8.54
117 50 DESSART BENOIT V2H 6 00:28:02 07:02 8.54
118 1170 ROSSION CAMILLE ESPF 2 00:28:02 07:02 8.54
119 1146 HONNAY COLIN XXX   00:28:16 07:05 8.47
120 1151 HONNAY SÉBASTIEN V1H 8 00:28:18 07:06 8.46
121 1177 EL KHOUDA NOURA SEF 5 00:28:31 07:09 8.39
122 1072 DI STEFANO BRUNO SEH 7 00:28:33 07:09 8.38
123 1192 DEJARDIN XXX   00:28:36 07:10 8.37
124 1187 DRIESSEN JOANNIC SEF 6 00:28:39 07:11 8.35
125 1186 DRIESSEN DIANA SEF 7 00:28:41 07:11 8.35
126 1200 PANY ALAIN V3H 1 00:28:52 07:14 8.29
127 1037 LENTZ ANNE V2F 2 00:28:53 07:14 8.29
128 1058 DAEMEN EMILIE SEF 8 00:28:54 07:15 8.28
129 1001 GUSTIN MARJORIE SEF 9 00:29:03 07:17 8.24
130 1190 VELLA JESSICA SEF 10 00:29:03 07:17 8.24
131 1108 MARC CHODE V3H 2 00:29:09 07:18 8.21
132 1059 DAGA MARINA V2F 3 00:29:09 07:18 8.21
133 1027 LEMMENS ISABELLE SEF 11 00:29:16 07:20 8.18
134 1029 LEROY JEAN-FRANÇOIS SEH 8 00:29:16 07:20 8.18
135 124 COLPAERT JOLINE SEF 12 00:29:19 07:21 8.16
136 1063 DEBACKER SYLVAIN SEH 9 00:29:21 07:21 8.16
137 1060 D'ALESSANDRO MAGALI SEF 13 00:29:22 07:22 8.15
138 1070 DEVRECKER MARTINE V1F 7 00:29:23 07:22 8.15
139 1049 BARICALLA CHRISTINE V1F 8 00:29:23 07:22 8.15
140 1048 BARICALLA SARAH JUF 1 00:29:25 07:22 8.14
141 1032 STREEL CAMILLE ESPF 3 00:29:30 07:24 8.11
142 1003 HOUSSONLOGE DOMINIQUE V1F 9 00:29:38 07:26 8.08
143 1101 LECHARLIER RAYMOND V3H 3 00:29:40 07:26 8.07
144 1069 DETHY ANNE SEF 14 00:29:41 07:26 8.06
145 1047 ANDRIEN JOËLLE V1F 10 00:29:42 07:27 8.06
146 1061 D'ALESSANDRO MIREILLE SEF 15 00:29:47 07:28 8.04
147 1087 GODIN FABRICE XXX   00:29:49 07:28 8.03
148 1008 BONANE AURIANE MIF 17 00:29:49 07:28 8.03
149 1009 NDIHOKUBWAYO ESPÉRANCE V1F 11 00:30:01 07:31 7.97
150 1183 DEVAUX NATHALIE V2F 4 00:30:13 07:34 7.92
151 1156 SPODEN WERNER SEH 10 00:30:14 07:35 7.92
152 1052 BONNECHERE STEPHANIE V1F 12 00:30:19 07:36 7.90
153 1065 DEMANY LÉA MIF 18 00:30:19 07:36 7.90
154 1067 DERWEDUWE SÉGOLÈNE MIF 19 00:30:19 07:36 7.90
155 313 HELAS JOHANNE ESPF 4 00:30:20 07:36 7.89
156 1013 MERENNE FLORE V1F 13 00:30:26 07:38 7.87
157 580 GIACCHGTTA LINA XXX   00:30:36 07:40 7.82
158 1030 CHARLIER MÉLISSA SEF 16 00:30:40 07:41 7.81
159 1031 LACROIX SARAH SEF 17 00:30:40 07:41 7.81
160 1205 MICHAUX MURIEL V2F 5 00:30:47 07:43 7.78
161 1185 THIRY STÉPHANIE SEF 18 00:30:51 07:44 7.76
162 442 GOFFAUX NATHALIE V1F 14 00:30:51 07:44 7.76
163 1195 OPITOM MANON ESPF 5 00:31:02 07:47 7.71
164 1042 ASPIOTIS MAGALI SEF 19 00:31:02 07:47 7.71
165 1150 MORIN BÉATRICE V2F 6 00:31:04 07:47 7.70
166 1100 LARDINOIS MATHIEU SEH 11 00:31:15 07:50 7.66
167 1209 VANDAMME VALENTINE SEF 20 00:31:15 07:50 7.66
168 1014 REYNEN JOËL V2H 7 00:31:20 07:51 7.64
169 1088 GUSBIN GENEVIEVE V2F 7 00:31:26 07:53 7.62
170 1121 PIRARD JEAN-FRANÇOIS V1H 9 00:31:30 07:54 7.60
171 1102 LEPLAT ISABELLE V2F 8 00:31:33 07:55 7.59
172 1105 MACCAN STEFANIA V1F 15 00:31:36 07:55 7.57
173 1066 DEMANY ALAIN V1H 10 00:31:36 07:55 7.57
174 1211 GERMEN MARINE SEF 21 00:31:40 07:56 7.56
175 1215 HENRY CHLOÉ MIF 20 00:31:40 07:56 7.56
176 1141 MATERNE JEAN-MARIE V3H 4 00:31:51 07:59 7.52
177 1199 SCHUERMANS FRANÇOISE V2F 9 00:32:17 08:06 7.41
178 228 LEJEUNE LAURENCE V1F 16 00:32:40 08:11 7.33
179 1181 FERON ALAIN V3H 5 00:32:41 08:12 7.32
180 1126 TONNES VÉRONIQUE V1F 17 00:33:05 08:18 7.24
181 1075 DUBOIS CHRISTELLE V1F 18 00:33:05 08:18 7.24
182 1089 HALLEUX AUDREY SEF 22 00:33:43 08:27 7.10
183 1158 MICHOTTE VALÈRE SEF 23 00:33:46 08:28 7.09
184 1033 HUBERT CARINE V2H 8 00:33:50 08:29 7.07
185 1217 DAVIN LISE SEF 24 00:34:01 08:32 7.04
186 46 GHINEA MIKAELA V1F 19 00:34:22 08:37 6.97
187 1099 KRAMER STEVEN V2H 9 00:34:24 08:37 6.96
188 1005 MINETTE MARGAUX CAF 8 00:34:32 08:39 6.93
189 1007 WANSON FLORENCE V1F 20 00:34:32 08:39 6.93
190 1043 BOVE BEATRICE V1F 21 00:34:34 08:40 6.92
191 1044 DETRIXHE ISABELLE V1F 22 00:34:34 08:40 6.92
192 1119 PIAZZA PHILIPPE V1H 11 00:34:52 08:44 6.87
193 602 WET MONIQUE V2F 10 00:34:57 08:46 6.85
194 1018 DAL FARRA EMMA XXX   00:35:11 08:49 6.80
195 1116 NYSSEN GAËLLE XXX   00:35:18 08:51 6.78
196 1123 PREUD'HOMME ISABELLE V1F 23 00:35:23 08:52 6.76
197 1085 GILLOT CORINNE V1F 24 00:35:24 08:52 6.76
198 1134 VAN DER HEYDEN AUBRIC XXX   00:35:41 08:57 6.71
199 1109 MASY FRANÇOISE SEF 25 00:36:49 09:14 6.50
200 1041 DETRY NANCY V1F 25 00:37:09 09:19 6.44
201 1223 PEREZ GONZALEZ ROSALIE SEF 26 00:40:35 10:10 5.90
202 1076 DUBON VINCIANE SEF 27 00:41:34 10:25 5.76
203 1148 GENIN DOMINIQUE V2H 10 00:48:16 12:06 4.96
204 1034 LOMBA JASMINE JUF 2 00:59:37 14:57 4.02
205 1040 HANIQUE NOÉMIE SEF 28 1:05:12 16:21 3.67